Time;durP1;ratioP1;P1;durP2;ratioP2;P2;SDS_P1;SDS_P2;PMS_P1;PMS_P2;Temp;Humidity;BMP_temperature;BMP_pressure;BME280_temperature;BME280_humidity;BME280_pressure;Samples;Min_cycle;Max_cycle;Signal;HPM_P1;HPM_P2
2020/12/01 00:00:41;;;;;;;23.67;21.37;;;;;;;2.50;83.72;100146.69;5011852;28;20203;-78
2020/12/01 00:03:07;;;;;;;23.07;20.77;;;;;;;2.51;83.53;100148.38;5011084;28;20783;-78
2020/12/01 00:05:33;;;;;;;20.57;18.87;;;;;;;2.62;83.16;100148.47;5011508;28;20683;-78
2020/12/01 00:07:59;;;;;;;22.53;20.23;;;;;;;2.40;83.86;100153.47;5011048;28;20335;-78
2020/12/01 00:10:25;;;;;;;21.97;19.77;;;;;;;2.46;84.62;100148.34;5011143;28;20234;-77
2020/12/01 00:12:51;;;;;;;21.57;19.57;;;;;;;2.54;84.16;100145.84;5011012;28;20310;-78
2020/12/01 00:15:21;;;;;;;21.53;19.53;;;;;;;2.54;84.08;100149.28;5011185;28;20231;-78
2020/12/01 00:17:47;;;;;;;23.00;20.77;;;;;;;2.59;83.62;100144.16;5011027;28;20296;-77
2020/12/01 00:20:15;;;;;;;22.30;20.03;;;;;;;2.67;83.45;100145.09;5003509;28;20210;-79
2020/12/01 00:22:41;;;;;;;22.07;19.83;;;;;;;2.62;83.61;100148.47;5010782;28;20238;-79
2020/12/01 00:25:08;;;;;;;21.03;19.10;;;;;;;2.67;82.94;100144.22;5011859;28;20746;-79
2020/12/01 00:27:34;;;;;;;23.13;20.20;;;;;;;2.64;83.90;100152.81;5011921;28;20222;-79
2020/12/01 00:30:06;;;;;;;22.30;20.27;;;;;;;2.56;83.65;100155.31;5012387;28;20202;-79
2020/12/01 00:32:32;;;;;;;21.97;19.77;;;;;;;2.61;84.09;100159.66;5015349;28;20249;-78
2020/12/01 00:34:58;;;;;;;24.00;21.50;;;;;;;2.62;84.20;100151.03;5015579;28;20278;-79
2020/12/01 00:37:24;;;;;;;21.30;19.37;;;;;;;2.69;83.29;100153.69;5015226;28;20309;-79
2020/12/01 00:39:49;;;;;;;22.00;19.77;;;;;;;2.77;83.02;100143.44;5013625;28;20257;-79
2020/12/01 00:42:15;;;;;;;20.80;18.90;;;;;;;2.77;83.26;100131.44;5015777;28;20570;-78
2020/12/01 00:44:41;;;;;;;21.50;19.50;;;;;;;2.87;83.18;100124.63;5015483;28;20254;-79
2020/12/01 00:47:08;;;;;;;22.80;20.57;;;;;;;2.77;83.23;100130.56;5015422;28;20615;-79
2020/12/01 00:49:33;;;;;;;21.67;19.67;;;;;;;2.84;82.87;100124.63;5015712;28;20269;-78
2020/12/01 00:51:59;;;;;;;20.47;18.60;;;;;;;2.80;82.74;100125.44;5014984;28;20210;-79
2020/12/01 00:54:25;;;;;;;19.80;18.10;;;;;;;2.74;82.86;100126.25;5015685;28;20935;-79
2020/12/01 00:56:51;;;;;;;19.37;17.73;;;;;;;2.62;83.28;100126.16;5014771;28;20609;-78
2020/12/01 00:59:17;;;;;;;21.57;19.40;;;;;;;2.71;83.73;100108.19;5014706;28;20206;-80
2020/12/01 01:01:43;;;;;;;18.80;16.43;;;;;;;2.77;83.31;100110.84;5014609;28;20297;-79
2020/12/01 01:04:09;;;;;;;18.93;17.33;;;;;;;2.67;82.47;100109.00;5014974;28;20333;-79
2020/12/01 01:06:35;;;;;;;21.03;19.13;;;;;;;2.67;83.11;100113.31;5014481;28;20227;-79
2020/12/01 01:09:02;;;;;;;20.17;18.17;;;;;;;2.66;84.05;100116.75;5014778;28;20195;-78
2020/12/01 01:11:30;;;;;;;18.93;17.33;;;;;;;2.58;83.90;100111.53;5014752;28;20207;-79
2020/12/01 01:13:56;;;;;;;19.93;18.13;;;;;;;2.56;83.71;100114.09;5015012;28;20203;-79
2020/12/01 01:16:24;;;;;;;20.80;18.90;;;;;;;2.65;84.22;100100.41;5014288;28;20231;-79
2020/12/01 01:18:50;;;;;;;20.80;18.93;;;;;;;2.75;83.90;100102.19;5014859;28;20195;-78
2020/12/01 01:21:17;;;;;;;20.10;18.30;;;;;;;2.84;83.91;100104.00;5014727;28;20269;-78
2020/12/01 01:23:43;;;;;;;20.10;18.30;;;;;;;2.85;84.21;100091.97;5014848;28;20223;-79
2020/12/01 01:26:09;;;;;;;19.10;17.60;;;;;;;2.89;83.29;100086.81;5014184;28;20203;-79
2020/12/01 01:28:35;;;;;;;18.67;17.17;;;;;;;2.83;82.48;100091.09;5010277;28;20231;-79
2020/12/01 01:31:01;;;;;;;19.23;17.47;;;;;;;2.70;83.69;100090.16;5014736;28;20290;-79
2020/12/01 01:33:26;;;;;;;19.97;18.23;;;;;;;2.71;83.59;100089.28;5014331;28;20234;-78
2020/12/01 01:35:53;;;;;;;18.43;16.83;;;;;;;2.74;83.39;100082.44;5014580;28;20214;-80
2020/12/01 01:38:20;;;;;;;18.37;16.87;;;;;;;2.85;83.72;100079.94;5014374;28;20728;-79
2020/12/01 01:40:46;;;;;;;17.70;16.20;;;;;;;2.78;83.02;100068.72;5015148;28;20207;-79
2020/12/01 01:43:12;;;;;;;16.93;15.53;;;;;;;2.65;82.89;100068.63;5014164;28;20218;-79
2020/12/01 01:45:41;;;;;;;19.00;17.40;;;;;;;2.75;83.63;100065.25;5014622;28;20257;-79
2020/12/01 01:48:17;;;;;;;19.30;17.63;;;;;;;2.59;83.59;100062.56;5014097;28;20653;-78
2020/12/01 01:50:50;;;;;;;18.50;16.80;;;;;;;2.51;83.58;100071.09;5014316;28;20211;-79
2020/12/01 01:53:17;;;;;;;18.27;16.67;;;;;;;2.53;83.62;100079.72;5013412;28;20219;-79
2020/12/01 01:55:44;;;;;;;20.10;18.23;;;;;;;2.60;83.12;100078.91;5013659;28;20610;-79
2020/12/01 01:58:11;;;;;;;17.97;16.37;;;;;;;2.62;83.22;100064.31;5013307;28;20277;-78
2020/12/01 02:00:54;;;;;;;18.30;16.60;;;;;;;2.64;83.62;100059.19;5013155;28;20641;-79
2020/12/01 02:03:33;;;;;;;19.70;17.90;;;;;;;2.61;83.68;100054.84;5013448;28;20223;-78
2020/12/01 02:06:00;;;;;;;17.90;16.40;;;;;;;2.54;84.32;100048.81;5013692;28;20202;-78
2020/12/01 02:08:27;;;;;;;17.43;15.93;;;;;;;2.59;83.72;100046.25;5013157;28;20203;-78
2020/12/01 02:10:55;;;;;;;18.20;16.50;;;;;;;2.70;84.28;100052.34;5013759;28;20203;-78
2020/12/01 02:13:30;;;;;;;17.97;16.47;;;;;;;2.64;83.44;100038.59;5012973;28;20219;-79
2020/12/01 02:15:56;;;;;;;18.77;17.17;;;;;;;2.66;83.95;100044.59;5013340;28;20203;-79
2020/12/01 02:18:34;;;;;;;16.77;15.30;;;;;;;2.68;83.37;100032.59;5013043;28;20253;-79
2020/12/01 02:21:02;;;;;;;15.97;14.63;;;;;;;2.62;82.76;100040.25;5013775;28;20207;-79
2020/12/01 02:23:28;;;;;;;16.97;15.47;;;;;;;2.66;83.53;100040.31;5012955;28;20305;-79
2020/12/01 02:26:01;;;;;;;16.63;15.23;;;;;;;2.62;83.72;100030.84;5013051;28;20207;-78
2020/12/01 02:28:28;;;;;;;17.63;16.03;;;;;;;2.63;83.43;100027.38;5012485;28;20277;-78
2020/12/01 02:30:54;;;;;;;17.07;15.67;;;;;;;2.62;83.60;100015.38;5013470;28;20203;-78
2020/12/01 02:33:20;;;;;;;16.83;15.43;;;;;;;2.65;83.22;100027.41;5012769;28;20226;-78
2020/12/01 02:35:46;;;;;;;17.50;15.93;;;;;;;2.63;83.48;100014.50;5013117;28;20271;-79
2020/12/01 02:38:11;;;;;;;17.27;15.87;;;;;;;2.57;83.50;100022.19;5012106;28;20266;-79
2020/12/01 02:40:37;;;;;;;17.77;16.27;;;;;;;2.60;83.34;100024.81;5013353;28;20261;-78
2020/12/01 02:43:09;;;;;;;17.53;15.93;;;;;;;2.58;83.72;100035.09;5012523;28;20265;-78
2020/12/01 02:45:36;;;;;;;16.43;15.03;;;;;;;2.59;82.66;100031.66;5012752;28;20257;-78
2020/12/01 02:48:01;;;;;;;16.77;15.27;;;;;;;2.64;82.62;100039.44;5013049;28;20218;-79
2020/12/01 02:50:27;;;;;;;17.77;16.33;;;;;;;2.73;82.46;100038.63;5013228;28;20613;-79
2020/12/01 02:52:53;;;;;;;16.83;15.43;;;;;;;2.75;82.75;100032.59;5011629;28;20203;-78
2020/12/01 02:55:19;;;;;;;16.50;15.10;;;;;;;2.69;83.36;100026.56;5012788;28;20213;-79
2020/12/01 02:57:44;;;;;;;18.13;16.43;;;;;;;2.72;82.92;100024.88;5012573;28;20682;-79
2020/12/01 03:00:10;;;;;;;17.23;15.73;;;;;;;2.71;82.60;100024.88;5012846;28;20206;-79
2020/12/01 03:02:37;;;;;;;16.37;14.97;;;;;;;2.69;82.29;100024.00;5013186;28;20203;-79
2020/12/01 03:05:03;;;;;;;19.03;17.33;;;;;;;2.68;82.34;100020.56;5012633;28;20254;-79
2020/12/01 03:07:29;;;;;;;17.57;15.80;;;;;;;2.62;82.40;100020.53;5012617;28;20277;-79
2020/12/01 03:09:55;;;;;;;17.47;15.87;;;;;;;2.70;83.11;100016.28;5013223;28;20264;-79
2020/12/01 03:12:21;;;;;;;18.20;16.50;;;;;;;2.76;83.20;100020.63;5012752;28;20284;-79
2020/12/01 03:14:47;;;;;;;17.57;16.03;;;;;;;2.78;83.00;100022.34;5012914;28;20227;-79
2020/12/01 03:17:13;;;;;;;18.07;16.47;;;;;;;2.78;82.27;100026.63;5012501;28;20230;-79
2020/12/01 03:19:39;;;;;;;17.37;15.87;;;;;;;2.81;82.97;100030.94;5013255;28;20207;-79
2020/12/01 03:22:05;;;;;;;17.80;16.30;;;;;;;2.71;82.23;100023.13;5013135;28;20238;-78
2020/12/01 03:24:31;;;;;;;16.57;15.10;;;;;;;2.71;83.05;100028.28;5013213;28;20632;-79
2020/12/01 03:26:56;;;;;;;17.73;15.97;;;;;;;2.74;83.56;100033.47;5012595;28;20226;-79
2020/12/01 03:29:22;;;;;;;17.60;16.10;;;;;;;2.76;83.05;100026.63;5012676;28;20379;-79
2020/12/01 03:31:48;;;;;;;16.30;14.80;;;;;;;2.75;83.58;100021.44;5012706;28;20207;-79
2020/12/01 03:34:14;;;;;;;17.63;16.10;;;;;;;2.85;83.10;100018.06;5012963;28;20696;-79
2020/12/01 03:36:41;;;;;;;16.80;15.40;;;;;;;2.90;83.12;100013.81;5012420;28;20280;-79
2020/12/01 03:39:07;;;;;;;17.50;15.93;;;;;;;2.79;82.64;100023.19;5013529;28;20243;-79
2020/12/01 03:41:33;;;;;;;16.33;15.03;;;;;;;2.86;82.25;100029.25;5013200;28;20207;-79
2020/12/01 03:43:59;;;;;;;18.50;16.70;;;;;;;2.88;82.57;100035.28;5012733;28;20227;-79
2020/12/01 03:46:25;;;;;;;17.70;16.20;;;;;;;3.02;81.76;100035.38;5012148;28;20227;-79
2020/12/01 03:48:51;;;;;;;16.07;14.77;;;;;;;3.06;81.77;100037.97;5013234;28;20253;-79
2020/12/01 03:51:17;;;;;;;17.33;15.83;;;;;;;2.95;81.91;100040.50;5012941;28;20253;-79
2020/12/01 03:53:43;;;;;;;17.13;15.57;;;;;;;3.01;81.75;100046.50;5013344;28;20281;-79
2020/12/01 03:56:09;;;;;;;17.07;15.67;;;;;;;3.00;82.67;100053.41;5012427;28;20257;-79
2020/12/01 03:58:35;;;;;;;16.53;15.23;;;;;;;3.05;82.25;100050.84;5008730;28;20645;-78
2020/12/01 04:01:01;;;;;;;16.83;15.43;;;;;;;3.08;82.88;100045.72;5013104;28;20203;-79
2020/12/01 04:03:27;;;;;;;15.63;14.33;;;;;;;3.01;82.19;100042.22;5012617;28;20255;-79
2020/12/01 04:05:52;;;;;;;16.20;14.80;;;;;;;3.01;83.08;100033.63;5016342;28;20290;-79
2020/12/01 04:08:19;;;;;;;14.73;13.53;;;;;;;3.05;82.35;100022.47;5016318;28;20288;-79
2020/12/01 04:10:45;;;;;;;14.83;13.63;;;;;;;2.95;82.42;100025.03;5016905;28;20206;-79
2020/12/01 04:13:12;;;;;;;15.47;14.17;;;;;;;3.04;81.94;100023.34;5016194;28;20206;-79
2020/12/01 04:15:38;;;;;;;14.33;13.13;;;;;;;3.13;82.17;100026.81;5016295;28;20202;-79
2020/12/01 04:18:04;;;;;;;14.27;13.07;;;;;;;3.22;82.01;100025.13;5015677;28;20313;-79
2020/12/01 04:20:30;;;;;;;15.37;14.13;;;;;;;3.09;82.14;100039.69;5016520;28;20684;-79
2020/12/01 04:22:56;;;;;;;13.90;12.73;;;;;;;3.01;81.76;100031.91;5015996;28;20253;-79
2020/12/01 04:25:23;;;;;;;14.50;13.10;;;;;;;2.94;81.97;100031.03;5016216;28;20676;-79
2020/12/01 04:27:51;;;;;;;14.50;13.30;;;;;;;2.92;82.59;100034.44;5014983;28;20250;-79
2020/12/01 04:30:17;;;;;;;14.83;13.63;;;;;;;3.06;82.68;100034.53;5015944;28;20199;-79
2020/12/01 04:32:43;;;;;;;13.87;12.77;;;;;;;3.10;82.80;100041.41;5015586;28;20226;-79
2020/12/01 04:35:09;;;;;;;15.17;13.97;;;;;;;3.10;82.22;100037.13;5016150;28;20222;-80
2020/12/01 04:37:35;;;;;;;13.63;12.50;;;;;;;3.12;82.21;100050.88;5015477;28;20308;-79
2020/12/01 04:40:01;;;;;;;15.23;13.93;;;;;;;3.14;82.09;100036.28;5016120;28;20226;-80
2020/12/01 04:42:28;;;;;;;14.00;12.80;;;;;;;3.10;81.98;100034.53;5015650;28;20249;-79
2020/12/01 04:45:00;;;;;;;13.17;12.07;;;;;;;3.18;81.42;100040.59;5015172;28;20289;-78
2020/12/01 04:47:32;;;;;;;13.20;12.13;;;;;;;3.12;81.58;100043.13;5015504;28;20219;-79
2020/12/01 04:50:03;;;;;;;12.83;11.73;;;;;;;3.01;81.70;100049.09;5016057;28;20241;-79
2020/12/01 04:52:47;;;;;;;14.03;12.83;;;;;;;3.13;82.14;100047.47;5015193;28;20265;-79
2020/12/01 04:55:34;;;;;;;13.13;12.07;;;;;;;3.16;82.06;100044.03;5007354;28;20202;-79
2020/12/01 04:58:27;;;;;;;13.67;12.47;;;;;;;3.10;82.09;100054.31;5014939;28;20591;-79
2020/12/01 05:01:02;;;;;;;13.43;12.33;;;;;;;3.14;82.45;100043.16;5015542;28;20258;-79
2020/12/01 05:03:39;;;;;;;14.03;12.83;;;;;;;3.15;82.94;100048.31;5014998;28;20237;-79
2020/12/01 05:06:33;;;;;;;13.30;12.27;;;;;;;3.18;82.99;100045.75;5016449;28;20289;-78
2020/12/01 05:09:03;;;;;;;13.83;12.63;;;;;;;3.14;83.10;100046.59;5015665;28;20597;-78
2020/12/01 05:11:44;;;;;;;13.83;12.73;;;;;;;3.14;82.67;100043.16;5017254;28;20206;-78
2020/12/01 05:14:17;;;;;;;12.57;11.57;;;;;;;3.00;82.47;100042.22;5016552;28;20282;-78
2020/12/01 05:17:06;;;;;;;14.70;13.43;;;;;;;3.00;83.40;100047.38;5016008;28;20223;-78
2020/12/01 05:19:40;;;;;;;13.30;12.13;;;;;;;3.05;83.44;100049.09;5012080;28;20202;-78
2020/12/01 05:22:07;;;;;;;12.97;11.97;;;;;;;3.06;83.39;100044.84;5016775;28;20210;-78
2020/12/01 05:24:38;;;;;;;12.63;11.63;;;;;;;3.18;83.47;100047.47;5016461;28;20638;-78
2020/12/01 05:27:04;;;;;;;12.83;11.83;;;;;;;3.14;83.30;100044.00;5016172;28;20245;-78
2020/12/01 05:29:30;;;;;;;12.03;11.13;;;;;;;2.92;84.06;100053.34;5016370;28;20207;-78
2020/12/01 05:31:56;;;;;;;12.50;11.43;;;;;;;2.98;84.16;100050.81;5015838;28;20257;-78
2020/12/01 05:34:23;;;;;;;13.07;12.03;;;;;;;3.06;84.31;100047.41;5015980;28;20195;-78
2020/12/01 05:36:52;;;;;;;14.03;12.83;;;;;;;3.07;84.79;100044.84;5015194;28;20231;-78
2020/12/01 05:39:21;;;;;;;12.43;11.53;;;;;;;3.14;84.57;100048.31;5016086;28;20265;-78
2020/12/01 05:41:59;;;;;;;13.43;12.33;;;;;;;3.18;84.68;100045.75;5016443;28;20261;-78
2020/12/01 05:44:28;;;;;;;12.57;11.57;;;;;;;3.26;84.86;100055.25;5009589;28;20599;-78
2020/12/01 05:47:00;;;;;;;12.53;11.53;;;;;;;3.26;83.62;100055.25;5016350;28;20253;-78
2020/12/01 05:49:39;;;;;;;12.40;11.40;;;;;;;3.36;83.90;100059.59;5016538;28;20199;-78
2020/12/01 05:52:09;;;;;;;12.67;11.67;;;;;;;3.38;83.45;100063.03;5015486;28;20574;-78
2020/12/01 05:54:38;;;;;;;12.20;11.20;;;;;;;3.38;83.72;100058.72;5016177;28;20199;-79
2020/12/01 05:57:18;;;;;;;12.50;11.40;;;;;;;3.41;83.02;100070.81;5015870;28;20227;-78
2020/12/01 05:59:54;;;;;;;11.70;10.80;;;;;;;3.36;83.09;100075.91;5016124;28;20203;-78
2020/12/01 06:02:43;;;;;;;12.57;11.57;;;;;;;3.36;82.85;100075.91;5015094;28;20199;-78
2020/12/01 06:05:12;;;;;;;12.00;11.10;;;;;;;3.38;83.24;100076.78;5015133;28;20597;-78
2020/12/01 06:07:43;;;;;;;13.50;12.30;;;;;;;3.25;82.64;100087.03;5015785;28;20278;-78
2020/12/01 06:10:27;;;;;;;12.90;11.90;;;;;;;3.34;83.79;100079.34;5015766;28;20635;-79
2020/12/01 06:13:10;;;;;;;11.93;10.93;;;;;;;3.40;83.65;100084.53;5014993;28;20202;-78
2020/12/01 06:15:40;;;;;;;12.10;11.20;;;;;;;3.39;83.08;100082.84;5010626;28;20229;-78
2020/12/01 06:18:17;;;;;;;12.87;11.83;;;;;;;3.43;82.92;100086.25;5015727;28;20775;-78
2020/12/01 06:20:50;;;;;;;11.83;10.93;;;;;;;3.51;82.80;100089.75;5011782;28;20203;-78
2020/12/01 06:23:43;;;;;;;12.67;11.63;;;;;;;3.50;82.46;100088.88;5015264;28;20265;-78
2020/12/01 06:26:32;;;;;;;12.60;11.60;;;;;;;3.51;82.71;100084.59;5014590;28;20724;-78
2020/12/01 06:29:29;;;;;;;12.67;11.57;;;;;;;3.55;82.53;100082.03;5013486;28;20260;-78
2020/12/01 06:32:34;;;;;;;11.43;10.53;;;;;;;3.50;82.50;100082.88;5015127;28;20832;-78
2020/12/01 06:35:19;;;;;;;12.37;11.40;;;;;;;3.54;82.54;100092.34;5015164;28;20205;-79
2020/12/01 06:37:58;;;;;;;12.50;11.50;;;;;;;3.60;81.88;100094.94;5014548;28;20231;-78
2020/12/01 06:40:37;;;;;;;11.67;10.77;;;;;;;3.53;81.84;100099.22;5009438;28;20258;-78
2020/12/01 06:43:09;;;;;;;12.20;11.20;;;;;;;3.57;81.89;100098.38;5014950;28;20203;-78
2020/12/01 06:45:38;;;;;;;12.77;11.77;;;;;;;3.60;82.74;100104.41;5014678;28;20323;-78
2020/12/01 06:48:09;;;;;;;12.27;11.30;;;;;;;3.64;82.14;100108.72;5014699;28;20230;-78
2020/12/01 06:50:40;;;;;;;12.33;11.33;;;;;;;3.61;81.76;100103.53;5015362;28;20199;-78
2020/12/01 06:53:06;;;;;;;12.47;11.47;;;;;;;3.61;82.26;100113.84;5014347;28;20198;-78
2020/12/01 06:55:42;;;;;;;12.10;11.10;;;;;;;3.65;81.83;100110.44;5014622;28;20841;-79
2020/12/01 06:58:15;;;;;;;13.07;12.07;;;;;;;3.67;81.73;100113.91;5014042;28;20222;-78
2020/12/01 07:00:41;;;;;;;12.73;11.63;;;;;;;3.60;81.39;100115.59;5014427;28;20261;-78
2020/12/01 07:03:10;;;;;;;12.87;11.80;;;;;;;3.52;81.76;100118.13;5014314;28;20223;-78
2020/12/01 07:05:37;;;;;;;12.20;11.20;;;;;;;3.55;82.18;100120.75;5014409;28;20223;-78
2020/12/01 07:08:13;;;;;;;12.80;11.27;;;;;;;3.29;81.76;100117.16;5014027;28;20226;-79
2020/12/01 07:10:39;;;;;;;12.30;11.40;;;;;;;3.29;82.56;100115.47;5014628;28;20199;-79
2020/12/01 07:13:11;;;;;;;12.53;11.53;;;;;;;3.20;83.05;100123.13;5013639;28;20207;-79
2020/12/01 07:15:40;;;;;;;12.37;11.37;;;;;;;3.18;82.96;100123.13;5014228;28;20203;-78
2020/12/01 07:18:21;;;;;;;12.87;11.87;;;;;;;3.25;83.03;100129.19;5014546;28;20584;-78
2020/12/01 07:21:15;;;;;;;11.47;10.57;;;;;;;3.12;83.50;100130.81;5013916;28;20257;-79
2020/12/01 07:23:48;;;;;;;12.77;11.70;;;;;;;3.16;83.89;100139.44;5014788;28;20199;-80
2020/12/01 07:26:25;;;;;;;13.37;12.23;;;;;;;3.18;84.15;100138.59;5013858;28;20202;-79
2020/12/01 07:29:01;;;;;;;12.13;11.23;;;;;;;3.21;84.69;100140.34;5013395;28;20234;-79
2020/12/01 07:31:30;;;;;;;11.97;11.07;;;;;;;3.12;84.71;100135.97;5012264;28;20198;-78
2020/12/01 07:33:58;;;;;;;13.23;12.13;;;;;;;2.94;84.71;100143.59;5014019;28;20199;-79
2020/12/01 07:36:34;;;;;;;12.70;11.60;;;;;;;2.92;85.12;100141.00;5014262;28;20222;-79
2020/12/01 07:39:14;;;;;;;12.50;11.40;;;;;;;3.04;84.91;100149.69;5014558;28;20253;-79
2020/12/01 07:41:53;;;;;;;13.70;12.60;;;;;;;3.11;85.07;100154.91;5016732;28;20252;-77
2020/12/01 07:44:21;;;;;;;13.23;12.07;;;;;;;3.01;84.74;100152.22;5015195;28;20911;-80
2020/12/01 07:47:00;;;;;;;13.47;12.27;;;;;;;3.04;85.35;100155.69;5017783;28;20230;-78
2020/12/01 07:49:29;;;;;;;13.10;12.03;;;;;;;3.02;85.51;100159.13;5017797;28;20202;-79
2020/12/01 07:52:04;;;;;;;13.23;12.23;;;;;;;3.13;85.67;100160.03;5015842;28;20276;-78
2020/12/01 07:54:31;;;;;;;12.17;11.17;;;;;;;3.03;85.49;100153.09;5018159;28;20273;-79
2020/12/01 07:56:56;;;;;;;14.67;13.53;;;;;;;3.08;85.44;100165.19;5017927;28;20837;-79
2020/12/01 07:59:23;;;;;;;13.13;12.13;;;;;;;3.18;85.44;100176.41;5017749;28;20202;-79
2020/12/01 08:01:49;;;;;;;12.73;11.67;;;;;;;3.16;85.33;100171.25;5017764;28;20580;-78
2020/12/01 08:04:18;;;;;;;16.17;14.87;;;;;;;3.25;85.28;100170.47;5017794;28;20218;-78
2020/12/01 08:06:44;;;;;;;12.50;11.50;;;;;;;3.29;84.59;100172.22;5017664;28;20242;-79
2020/12/01 08:09:19;;;;;;;36.00;29.10;;;;;;;3.36;85.18;100167.94;5017711;28;20286;-79
2020/12/01 08:11:45;;;;;;;12.90;11.90;;;;;;;3.29;84.71;100179.06;5017533;28;20198;-79
2020/12/01 08:14:11;;;;;;;11.93;11.03;;;;;;;3.31;84.96;100180.81;5017570;28;20246;-79
2020/12/01 08:16:38;;;;;;;12.33;11.27;;;;;;;3.42;84.70;100183.44;5017158;28;20223;-79
2020/12/01 08:19:04;;;;;;;10.57;9.77;;;;;;;3.34;84.82;100191.13;5018102;28;20197;-78
2020/12/01 08:21:35;;;;;;;15.03;13.80;;;;;;;3.44;84.96;100184.31;5017239;28;20687;-79
2020/12/01 08:24:04;;;;;;;13.00;11.90;;;;;;;3.38;84.84;100194.59;5018311;28;20595;-80
2020/12/01 08:26:32;;;;;;;11.83;10.83;;;;;;;3.41;85.21;100189.47;5017032;28;20223;-78
2020/12/01 08:29:04;;;;;;;12.33;11.37;;;;;;;3.55;84.99;100193.00;5016090;28;20265;-79
2020/12/01 08:31:38;;;;;;;12.20;11.20;;;;;;;3.58;84.59;100195.56;5017518;28;20277;-80
2020/12/01 08:34:18;;;;;;;12.80;11.80;;;;;;;3.60;84.94;100202.47;5018695;28;20206;-78
2020/12/01 08:37:00;;;;;;;11.63;10.67;;;;;;;3.53;84.67;100199.88;5016210;28;20231;-79
2020/12/01 08:39:41;;;;;;;11.43;10.43;;;;;;;3.57;84.51;100198.16;5017503;28;20203;-78
2020/12/01 08:42:14;;;;;;;10.90;10.00;;;;;;;3.59;84.38;100201.63;5017187;28;20209;-79
2020/12/01 08:44:46;;;;;;;12.87;11.80;;;;;;;3.69;84.54;100203.41;5016106;28;20265;-79
2020/12/01 08:47:12;;;;;;;13.60;12.60;;;;;;;3.73;84.74;100199.13;5017418;28;20222;-79
2020/12/01 08:49:43;;;;;;;11.47;10.57;;;;;;;3.74;84.54;100201.69;5017113;28;20195;-80
2020/12/01 08:52:32;;;;;;;11.93;10.93;;;;;;;3.77;84.95;100209.44;5017433;28;20538;-80
2020/12/01 08:55:13;;;;;;;14.63;13.27;;;;;;;3.83;85.02;100212.94;5015788;28;20249;-79
2020/12/01 08:57:40;;;;;;;11.60;10.63;;;;;;;3.87;84.19;100215.53;5016819;28;20427;-79
2020/12/01 09:00:10;;;;;;;14.60;13.40;;;;;;;3.96;84.92;100225.03;5019806;28;20564;-79
2020/12/01 09:02:38;;;;;;;13.93;12.83;;;;;;;3.91;84.84;100229.31;5015281;28;20253;-79
2020/12/01 09:05:05;;;;;;;19.77;17.73;;;;;;;4.04;84.85;100238.81;5017221;28;20219;-78
2020/12/01 09:07:35;;;;;;;14.23;12.90;;;;;;;3.96;84.67;100233.66;5017001;28;20230;-80
2020/12/01 09:10:14;;;;;;;15.17;13.77;;;;;;;4.04;84.93;100241.41;5018198;28;20250;-80
2020/12/01 09:12:44;;;;;;;16.70;15.10;;;;;;;4.04;84.50;100244.00;5015866;28;20213;-78
2020/12/01 09:15:22;;;;;;;11.87;10.87;;;;;;;3.90;84.24;100238.75;5017335;28;20253;-79
2020/12/01 09:17:58;;;;;;;12.47;11.47;;;;;;;3.86;84.78;100251.66;5016071;28;20786;-79
2020/12/01 09:23:19;;;;;;;17.37;15.90;;;;;;;3.95;85.21;100242.25;5010202;28;20199;-79
2020/12/01 09:25:47;;;;;;;21.40;19.40;;;;;;;3.95;85.15;100250.00;5016527;28;20273;-79
2020/12/01 09:28:17;;;;;;;13.03;11.93;;;;;;;4.02;85.13;100247.44;5013115;28;20227;-80
2020/12/01 09:30:44;;;;;;;14.43;13.33;;;;;;;4.02;84.73;100253.44;5016525;28;20199;-78
2020/12/01 09:33:12;;;;;;;12.93;11.87;;;;;;;4.09;84.59;100249.19;5015248;28;20567;-79
2020/12/01 09:35:39;;;;;;;17.57;16.00;;;;;;;4.12;84.25;100256.94;5013571;28;20622;-80
2020/12/01 09:38:05;;;;;;;13.67;12.47;;;;;;;4.15;84.51;100262.13;5015692;28;20288;-79
2020/12/01 09:40:33;;;;;;;13.98;12.88;;;;;;;4.14;84.59;100266.44;5016453;28;20438;-79
2020/12/01 09:43:05;;;;;;;13.50;12.20;;;;;;;3.98;84.51;100273.25;5015885;28;20226;-77
2020/12/01 09:45:32;;;;;;;23.50;21.17;;;;;;;4.09;84.59;100277.63;5015842;28;20695;-79
2020/12/01 09:48:03;;;;;;;19.00;17.40;;;;;;;4.10;84.33;100267.28;5016727;28;20281;-79
2020/12/01 09:50:31;;;;;;;14.57;13.47;;;;;;;4.19;84.54;100276.78;5016902;28;20211;-79
2020/12/01 09:53:09;;;;;;;26.10;23.47;;;;;;;4.23;84.05;100278.53;5015845;28;20199;-79
2020/12/01 09:55:49;;;;;;;19.67;17.97;;;;;;;4.26;84.16;100275.97;5013976;28;20239;-78
2020/12/01 09:58:30;;;;;;;12.77;11.70;;;;;;;4.22;84.44;100283.69;5015897;28;20290;-79
2020/12/01 10:09:13;;;;;;;11.37;10.47;;;;;;;4.25;84.88;100278.53;5015285;28;20788;-79
2020/12/01 10:20:24;;;;;;;14.03;12.83;;;;;;;4.38;84.28;100295.84;4985297;28;20212;-78
2020/12/01 10:25:55;;;;;;;11.27;10.37;;;;;;;4.24;84.80;100294.88;5015380;28;20278;-78
2020/12/01 10:36:33;;;;;;;12.27;11.10;;;;;;;4.26;84.88;100288.88;5008756;28;20284;-78
2020/12/01 10:39:00;;;;;;;13.33;11.87;;;;;;;4.24;87.55;100289.72;5015922;28;20222;-78
2020/12/01 10:41:29;;;;;;;14.17;12.83;;;;;;;4.33;86.82;100295.78;5015044;28;20220;-79
2020/12/01 10:43:55;;;;;;;11.80;10.80;;;;;;;4.47;88.38;100295.00;5013126;28;20214;-78
2020/12/01 10:46:21;;;;;;;12.17;11.17;;;;;;;4.49;86.06;100293.28;5015197;28;20203;-82
2020/12/01 10:48:47;;;;;;;11.93;11.00;;;;;;;4.63;87.36;100295.91;5023183;28;20230;-83
2020/12/01 10:51:12;;;;;;;11.03;10.13;;;;;;;4.60;86.32;100304.53;5023016;28;20210;-82
2020/12/01 10:53:39;;;;;;;11.27;10.37;;;;;;;4.62;86.38;100295.06;5022204;28;20203;-81
2020/12/01 10:59:27;;;;;;;9.03;8.23;;;;;;;4.64;85.35;100305.38;5026416;28;20209;-81
2020/12/01 11:01:53;;;;;;;10.00;9.20;;;;;;;4.72;85.70;100304.56;5029000;28;20268;-82
2020/12/01 11:04:20;;;;;;;10.77;9.67;;;;;;;4.72;84.71;100303.69;5016625;28;20684;-78
2020/12/01 11:06:47;;;;;;;10.73;9.73;;;;;;;4.77;85.21;100320.91;5013087;28;20231;-78
2020/12/01 11:09:13;;;;;;;10.23;9.33;;;;;;;4.76;84.68;100315.78;5004324;28;20261;-78
2020/12/01 11:11:40;;;;;;;9.07;8.37;;;;;;;4.72;84.28;100321.78;5010857;28;20199;-79
2020/12/01 11:14:08;;;;;;;10.13;9.33;;;;;;;4.74;83.74;100313.19;5011300;28;20199;-79
2020/12/01 11:16:35;;;;;;;13.77;10.33;;;;;;;4.80;84.57;100321.78;5011324;28;20296;-77
2020/12/01 11:19:00;;;;;;;9.13;8.37;;;;;;;4.74;84.54;100330.41;5012230;28;20252;-79
2020/12/01 11:21:26;;;;;;;8.73;8.03;;;;;;;4.73;83.47;100329.53;5012612;28;20211;-79
2020/12/01 11:23:53;;;;;;;9.40;8.60;;;;;;;4.78;83.63;100333.00;5012501;28;20199;-78
2020/12/01 11:26:20;;;;;;;9.33;8.63;;;;;;;4.75;85.78;100332.97;5011513;28;20559;-79
2020/12/01 11:28:46;;;;;;;9.43;8.63;;;;;;;4.75;84.91;100332.13;5012076;28;20214;-78
2020/12/01 11:31:12;;;;;;;9.63;8.93;;;;;;;4.85;84.35;100323.53;5004605;28;20228;-78
2020/12/01 11:33:39;;;;;;;9.00;8.30;;;;;;;4.91;84.22;100333.88;5012620;28;20214;-78
2020/12/01 11:36:05;;;;;;;8.37;7.67;;;;;;;5.01;84.52;100341.69;5012728;28;20199;-78
2020/12/01 11:38:31;;;;;;;9.37;8.60;;;;;;;5.07;83.50;100339.97;5013289;28;20233;-79
2020/12/01 11:40:57;;;;;;;9.03;8.23;;;;;;;5.05;83.65;100339.09;5014232;28;20601;-79
2020/12/01 11:43:23;;;;;;;8.10;7.43;;;;;;;5.02;83.92;100339.09;5012859;28;20708;-79
2020/12/01 11:45:49;;;;;;;8.83;8.03;;;;;;;5.09;84.84;100343.41;5012081;28;20700;-79
2020/12/01 11:48:14;;;;;;;7.77;7.17;;;;;;;5.09;84.23;100348.59;5010546;28;20254;-79
2020/12/01 11:50:41;;;;;;;7.77;7.17;;;;;;;5.08;83.31;100343.44;5013614;28;20195;-79
2020/12/01 11:53:07;;;;;;;8.00;7.40;;;;;;;5.06;82.96;100351.19;5012532;28;20265;-79
2020/12/01 11:55:33;;;;;;;8.10;7.50;;;;;;;5.06;83.37;100355.50;5013137;28;20205;-79
2020/12/01 11:57:58;;;;;;;7.60;7.00;;;;;;;5.04;83.03;100354.63;5012745;28;20228;-80
2020/12/01 12:00:26;;;;;;;8.33;7.63;;;;;;;5.04;83.57;100363.25;5014630;28;20561;-80
2020/12/01 12:02:52;;;;;;;8.83;8.13;;;;;;;5.04;83.28;100358.09;5014174;28;20203;-79
2020/12/01 12:05:18;;;;;;;8.50;7.83;;;;;;;4.99;83.29;100367.53;5014258;28;20226;-79